Time;durP1;ratioP1;P1;durP2;ratioP2;P2;SDS_P1;SDS_P2;PMS_P1;PMS_P2;Temp;Humidity;BMP_temperature;BMP_pressure;BME280_temperature;BME280_humidity;BME280_pressure;Samples;Min_cycle;Max_cycle;Signal;HPM_P1;HPM_P2
2023/06/25 10:12:41;;;;;;;7.43;5.28;;;;;;;28.24;33.96;96818.56;2084227;28;20648;-61
2023/06/25 10:15:03;;;;;;;8.00;5.80;;;;;;;28.49;34.68;96814.75;2085161;28;20572;-61
2023/06/25 10:17:25;;;;;;;13.88;6.30;;;;;;;28.39;34.14;96824.03;2092507;27;20582;-61
2023/06/25 10:19:56;;;;;;;10.48;6.20;;;;;;;27.47;34.53;96812.78;2093173;27;20562;-61
2023/06/25 10:22:21;;;;;;;12.07;6.82;;;;;;;27.54;34.80;96808.41;2084171;28;20576;-61
2023/06/25 10:24:51;;;;;;;9.75;7.60;;;;;;;29.23;34.66;96813.34;2083987;28;20565;-61
2023/06/25 10:27:24;;;;;;;12.90;6.80;;;;;;;29.45;33.23;96803.56;2099600;27;20542;-61
2023/06/25 10:29:54;;;;;;;7.70;5.18;;;;;;;29.39;32.78;96819.63;2101529;27;20564;-61
2023/06/25 10:32:29;;;;;;;11.35;6.90;;;;;;;29.34;32.99;96804.03;2091258;27;20563;-61
2023/06/25 10:35:17;;;;;;;9.02;6.38;;;;;;;29.61;32.47;96799.03;2108919;27;20551;-61
2023/06/25 10:37:43;;;;;;;16.10;6.90;;;;;;;30.13;31.74;96798.09;2085350;28;20805;-61
2023/06/25 10:38:45;;;;;;;12.02;6.78;;;;;;;30.38;31.77;96792.38;2080257;28;20252;-61
2023/06/25 10:41:13;;;;;;;9.90;5.77;;;;;;;29.06;32.52;96788.47;2101901;27;20545;-61
2023/06/25 10:42:15;;;;;;;7.70;6.00;;;;;;;29.53;32.94;96799.13;2096331;28;20481;-61
2023/06/25 10:44:45;;;;;;;8.57;5.53;;;;;;;30.31;32.45;96794.16;2098619;27;20565;-61
2023/06/25 10:45:51;;;;;;;9.93;6.50;;;;;;;30.22;32.25;96795.28;2096367;28;20432;-61
2023/06/25 10:48:25;;;;;;;14.90;8.10;;;;;;;31.40;31.94;96797.66;2084994;27;20561;-61
2023/06/25 10:49:27;;;;;;;9.80;6.83;;;;;;;31.10;31.49;96795.19;2078744;28;20442;-61
2023/06/25 10:52:07;;;;;;;8.60;6.10;;;;;;;29.57;32.05;96792.38;2091578;27;20559;-60
2023/06/25 10:53:15;;;;;;;9.27;5.97;;;;;;;28.56;33.17;96795.25;2082799;28;20425;-61
2023/06/25 10:56:02;;;;;;;13.90;7.03;;;;;;;29.81;33.11;96786.72;2083811;28;20594;-61
2023/06/25 10:57:14;;;;;;;9.33;6.97;;;;;;;29.63;31.78;96784.38;2083406;28;20779;-61
2023/06/25 11:00:03;;;;;;;8.83;6.40;;;;;;;29.59;32.92;96779.56;2086965;28;20556;-61
2023/06/25 11:01:05;;;;;;;9.68;6.50;;;;;;;29.06;32.60;96783.09;2086702;28;20429;-61
2023/06/25 11:02:22;;;;;;;10.57;6.60;;;;;;;30.06;31.75;96786.41;2087253;28;20200;-61
2023/06/25 11:05:05;;;;;;;9.05;5.85;;;;;;;30.35;31.48;96783.81;2100191;27;21091;-61
2023/06/25 11:06:06;;;;;;;8.50;6.63;;;;;;;30.71;31.29;96780.31;2099654;28;20194;-63
2023/06/25 11:07:11;;;;;;;11.17;7.20;;;;;;;31.04;30.76;96783.28;2098745;28;20533;-62
2023/06/25 11:10:02;;;;;;;9.60;6.80;;;;;;;30.87;30.48;96785.44;2116119;27;20528;-61
2023/06/25 11:11:04;;;;;;;9.10;6.60;;;;;;;29.93;31.50;96781.72;2115837;28;20418;-62
2023/06/25 11:12:06;;;;;;;8.70;5.63;;;;;;;29.34;31.85;96779.81;2116439;28;20838;-61
2023/06/25 11:13:09;;;;;;;9.03;6.00;;;;;;;28.63;32.99;96790.81;2111073;28;21091;-61
2023/06/25 11:15:58;;;;;;;10.03;6.57;;;;;;;29.57;31.87;96786.97;2107645;27;20553;-61
2023/06/25 11:16:59;;;;;;;10.83;7.13;;;;;;;29.53;31.08;96783.81;2107341;28;20492;-62
2023/06/25 11:18:03;;;;;;;9.10;7.27;;;;;;;29.09;31.37;96776.50;2105416;27;20420;-62
2023/06/25 11:19:07;;;;;;;12.53;6.90;;;;;;;29.80;31.63;96776.09;2101993;28;20438;-62
2023/06/25 11:20:09;;;;;;;8.00;5.50;;;;;;;29.76;32.26;96775.69;2102549;28;20441;-62
2023/06/25 11:23:13;;;;;;;13.57;6.82;;;;;;;29.58;31.10;96781.41;2087817;27;20564;-61
2023/06/25 11:24:15;;;;;;;10.88;6.68;;;;;;;28.79;31.78;96779.97;2070888;28;20701;-61
2023/06/25 11:25:20;;;;;;;10.77;6.43;;;;;;;28.86;32.18;96769.31;2070805;28;20243;-61
2023/06/25 11:26:22;;;;;;;13.20;6.43;;;;;;;29.08;31.17;96767.63;2074366;28;20201;-61
2023/06/25 11:27:28;;;;;;;10.48;6.50;;;;;;;30.03;31.27;96762.59;2074377;28;20964;-61
2023/06/25 11:28:30;;;;;;;11.00;7.20;;;;;;;30.45;30.17;96760.97;2073530;28;20225;-62
2023/06/25 11:31:50;;;;;;;9.60;6.80;;;;;;;28.91;31.97;96752.66;2100761;27;20558;-61
2023/06/25 11:32:51;;;;;;;8.10;5.88;;;;;;;29.38;31.37;96748.03;2097482;28;20203;-61
2023/06/25 11:33:54;;;;;;;10.13;6.30;;;;;;;29.81;30.96;96754.41;2083150;28;20200;-61
2023/06/25 11:34:57;;;;;;;7.40;6.28;;;;;;;29.89;31.18;96753.50;2082878;28;20920;-61
2023/06/25 11:36:09;;;;;;;10.77;6.73;;;;;;;29.14;31.27;96753.47;2082824;28;20204;-61
2023/06/25 11:37:13;;;;;;;8.27;6.47;;;;;;;29.03;31.15;96753.91;2083458;28;20437;-61
2023/06/25 11:38:24;;;;;;;11.13;7.17;;;;;;;29.19;32.31;96757.44;2078150;28;20241;-61
2023/06/25 11:39:25;;;;;;;10.75;7.10;;;;;;;30.07;31.21;96761.16;2073105;28;20435;-61
2023/06/25 11:40:29;;;;;;;10.27;6.40;;;;;;;30.98;30.33;96756.28;2075665;28;20792;-61
2023/06/25 11:41:31;;;;;;;9.03;6.17;;;;;;;31.29;29.95;96760.47;2072486;28;20480;-61
2023/06/25 11:42:39;;;;;;;10.13;7.03;;;;;;;29.72;30.47;96752.84;2074445;28;20426;-62
2023/06/25 11:43:40;;;;;;;12.07;6.47;;;;;;;29.61;30.91;96758.69;2073350;28;20454;-61
2023/06/25 11:47:44;;;;;;;9.85;7.32;;;;;;;29.29;30.58;96756.19;2095692;27;20557;-61
2023/06/25 11:48:49;;;;;;;10.05;7.40;;;;;;;30.33;30.34;96745.50;2088762;28;20588;-62
2023/06/25 11:49:53;;;;;;;8.88;6.68;;;;;;;31.12;29.59;96746.47;2088089;28;20233;-62
2023/06/25 11:51:04;;;;;;;9.00;6.33;;;;;;;31.43;29.61;96749.56;2087599;28;20242;-62
2023/06/25 11:52:06;;;;;;;9.30;7.10;;;;;;;32.08;29.13;96746.56;2085185;28;20453;-61
2023/06/25 11:53:08;;;;;;;11.00;5.83;;;;;;;31.85;28.86;96749.59;2088097;28;20547;-62
2023/06/25 11:54:11;;;;;;;11.93;7.10;;;;;;;31.20;29.74;96749.03;2087232;28;20954;-62
2023/06/25 11:55:13;;;;;;;9.20;6.97;;;;;;;31.25;29.31;96747.38;2088038;28;20440;-62
2023/06/25 11:56:14;;;;;;;9.53;6.20;;;;;;;32.15;29.13;96738.50;2089782;28;20429;-61
2023/06/25 11:57:17;;;;;;;10.27;6.97;;;;;;;30.66;29.94;96729.69;2090599;28;20561;-61
2023/06/25 11:58:19;;;;;;;14.00;6.70;;;;;;;30.46;29.97;96733.00;2082958;28;20483;-61
2023/06/25 11:59:20;;;;;;;12.00;6.70;;;;;;;31.42;29.29;96731.72;2082594;28;20646;-62
2023/06/25 12:00:22;;;;;;;9.27;6.37;;;;;;;32.04;28.87;96737.22;2083802;28;20430;-62
2023/06/25 12:01:25;;;;;;;7.53;6.57;;;;;;;32.40;28.93;96738.81;2091030;28;20853;-62
2023/06/25 12:02:26;;;;;;;8.33;6.13;;;;;;;32.60;27.72;96739.88;2087927;28;20896;-62
2023/06/25 12:03:48;;;;;;;9.90;6.40;;;;;;;32.62;28.12;96735.91;2084437;28;20547;-61
2023/06/25 12:08:20;;;;;;;7.87;5.80;;;;;;;32.19;28.19;96737.09;2096244;27;20566;-61
2023/06/25 12:09:21;;;;;;;10.43;6.40;;;;;;;31.92;28.09;96736.13;2086628;28;20868;-61
2023/06/25 12:10:24;;;;;;;7.43;6.13;;;;;;;30.76;29.39;96734.75;2089521;28;20906;-62
2023/06/25 12:11:25;;;;;;;10.70;6.43;;;;;;;31.15;28.52;96729.88;2090069;28;20493;-61
2023/06/25 12:12:27;;;;;;;8.23;6.40;;;;;;;30.52;29.31;96720.66;2089864;28;20521;-62
2023/06/25 12:13:28;;;;;;;10.10;6.10;;;;;;;30.61;29.37;96724.91;2085563;28;20465;-61
2023/06/25 12:14:30;;;;;;;12.53;6.30;;;;;;;29.45;30.63;96720.22;2087675;28;20913;-61
2023/06/25 12:15:32;;;;;;;8.20;6.20;;;;;;;28.75;31.32;96724.94;2091142;28;20434;-61
2023/06/25 12:16:33;;;;;;;8.30;6.67;;;;;;;29.18;30.59;96724.34;2088586;28;20436;-62
2023/06/25 12:17:35;;;;;;;8.87;6.00;;;;;;;29.35;30.93;96724.22;2091452;28;20516;-62
2023/06/25 12:18:36;;;;;;;9.10;7.20;;;;;;;28.98;31.19;96721.38;2089468;28;20646;-62
2023/06/25 12:19:38;;;;;;;10.07;6.93;;;;;;;29.30;30.50;96719.38;2095492;28;20446;-62
2023/06/25 12:20:39;;;;;;;9.32;6.65;;;;;;;28.29;31.50;96725.75;2093301;28;20199;-62
2023/06/25 12:21:41;;;;;;;12.65;7.53;;;;;;;28.46;31.74;96731.03;2091368;28;20223;-61
2023/06/25 12:22:43;;;;;;;8.70;6.45;;;;;;;28.86;31.72;96722.81;2092122;28;20677;-62
2023/06/25 12:23:44;;;;;;;12.10;7.30;;;;;;;28.93;30.83;96727.28;2090044;28;20748;-61
2023/06/25 12:24:46;;;;;;;9.57;6.28;;;;;;;29.47;30.25;96725.41;2087105;28;20193;-61
2023/06/25 12:25:47;;;;;;;9.32;6.60;;;;;;;30.43;30.06;96714.53;2087946;28;20236;-61
2023/06/25 12:26:49;;;;;;;9.88;6.20;;;;;;;30.54;29.19;96725.84;2090228;28;20196;-62
2023/06/25 12:27:53;;;;;;;10.85;7.90;;;;;;;30.98;29.22;96718.53;2089495;28;20211;-62
2023/06/25 12:28:55;;;;;;;9.93;7.18;;;;;;;30.76;29.23;96722.09;2091049;28;20224;-62
2023/06/25 12:29:56;;;;;;;10.47;7.13;;;;;;;30.54;29.75;96707.81;2089619;28;20702;-61
2023/06/25 12:30:58;;;;;;;10.20;6.90;;;;;;;30.06;29.72;96707.53;2090646;28;20496;-61
2023/06/25 12:31:59;;;;;;;9.47;6.83;;;;;;;29.45;30.36;96711.31;2090610;28;20474;-61
2023/06/25 12:33:01;;;;;;;12.13;8.13;;;;;;;29.18;30.99;96710.91;2091921;28;20907;-61
2023/06/25 12:34:03;;;;;;;10.57;8.00;;;;;;;30.11;30.52;96703.22;2107870;28;20430;-61
2023/06/25 12:38:49;;;;;;;8.90;6.77;;;;;;;31.78;28.71;96718.22;2109227;27;20575;-61
2023/06/25 12:39:53;;;;;;;11.90;6.33;;;;;;;32.25;28.73;96708.41;2111563;28;21049;-61
2023/06/25 12:40:56;;;;;;;8.87;6.57;;;;;;;32.88;28.29;96710.78;2111260;28;20434;-61
2023/06/25 12:41:58;;;;;;;11.87;7.10;;;;;;;33.21;27.82;96706.38;2111060;28;20476;-61
2023/06/25 12:43:00;;;;;;;8.77;7.07;;;;;;;33.19;27.42;96708.47;2112672;27;20918;-61
2023/06/25 12:44:01;;;;;;;10.17;6.60;;;;;;;33.18;27.42;96707.63;2120624;28;20966;-61
2023/06/25 12:45:03;;;;;;;9.20;6.80;;;;;;;33.58;27.40;96701.31;2120131;28;20593;-61
2023/06/25 12:46:05;;;;;;;8.83;7.03;;;;;;;33.77;27.06;96696.88;2120082;28;20483;-61
2023/06/25 12:47:07;;;;;;;12.10;7.50;;;;;;;33.73;27.37;96697.53;2119095;28;20543;-61
2023/06/25 12:48:08;;;;;;;9.33;6.63;;;;;;;32.83;27.76;96699.75;2108202;28;20477;-62
2023/06/25 12:49:10;;;;;;;11.77;7.33;;;;;;;31.98;27.46;96700.22;2102596;28;20522;-61
2023/06/25 12:50:11;;;;;;;9.20;6.60;;;;;;;31.85;27.64;96694.78;2102386;28;20489;-62
2023/06/25 12:51:13;;;;;;;8.77;6.57;;;;;;;30.93;29.38;96700.25;2103030;28;20801;-64
2023/06/25 12:52:14;;;;;;;9.23;7.43;;;;;;;31.33;28.61;96695.16;2102847;28;20457;-64
2023/06/25 12:53:16;;;;;;;10.30;6.90;;;;;;;30.71;29.25;96699.47;2104763;28;20451;-64
2023/06/25 12:54:17;;;;;;;8.90;6.83;;;;;;;30.04;29.64;96688.88;2112149;28;20422;-63
2023/06/25 12:55:18;;;;;;;8.43;6.97;;;;;;;29.69;29.69;96685.97;2112039;28;20423;-63
2023/06/25 12:56:21;;;;;;;14.63;7.20;;;;;;;30.85;29.70;96698.53;2112091;28;20902;-64
2023/06/25 12:57:24;;;;;;;8.23;6.70;;;;;;;29.98;30.12;96681.56;2111052;28;20425;-64
2023/06/25 12:58:26;;;;;;;8.63;7.00;;;;;;;31.10;29.21;96688.16;2110503;28;20467;-63
2023/06/25 12:59:28;;;;;;;10.70;7.13;;;;;;;32.16;28.77;96688.00;2111949;28;20479;-64
2023/06/25 13:00:30;;;;;;;9.40;6.37;;;;;;;32.61;27.67;96688.31;2111529;28;20872;-63
2023/06/25 13:01:55;;;;;;;10.83;7.70;;;;;;;32.86;27.15;96688.56;2111701;28;20430;-64
2023/06/25 13:02:57;;;;;;;10.30;7.40;;;;;;;32.56;27.35;96682.72;2109779;28;20459;-64
2023/06/25 13:03:59;;;;;;;9.50;7.30;;;;;;;33.05;27.16;96688.72;2111023;28;20427;-62
2023/06/25 13:05:01;;;;;;;10.37;5.93;;;;;;;33.66;27.32;96684.00;2112044;28;20434;-62
2023/06/25 13:06:02;;;;;;;8.37;6.70;;;;;;;33.61;26.54;96689.22;2112092;28;20506;-61
2023/06/25 13:07:04;;;;;;;9.47;6.60;;;;;;;33.11;26.12;96685.16;2112002;28;20423;-61
2023/06/25 13:08:05;;;;;;;8.63;6.53;;;;;;;33.60;26.52;96684.84;2110292;28;20431;-61
2023/06/25 13:09:07;;;;;;;7.70;5.70;;;;;;;33.04;26.05;96682.50;2111964;28;20427;-62
2023/06/25 13:10:08;;;;;;;11.10;6.97;;;;;;;32.96;26.52;96679.16;2112035;28;20453;-62
2023/06/25 13:11:10;;;;;;;9.67;7.40;;;;;;;33.83;26.74;96684.38;2111860;28;20431;-61
2023/06/25 13:12:12;;;;;;;8.47;6.73;;;;;;;33.20;26.03;96674.97;2111838;28;20438;-62
2023/06/25 13:13:13;;;;;;;10.67;6.63;;;;;;;33.28;26.51;96677.50;2114704;28;20518;-62
2023/06/25 13:14:15;;;;;;;7.23;6.40;;;;;;;33.82;26.58;96682.72;2114219;28;20505;-62
2023/06/25 13:15:16;;;;;;;9.57;6.93;;;;;;;33.47;26.54;96672.22;2111985;28;20430;-62
2023/06/25 13:16:18;;;;;;;8.03;6.73;;;;;;;33.18;26.48;96679.78;2111132;28;20477;-62
2023/06/25 13:17:19;;;;;;;18.63;7.30;;;;;;;33.61;26.15;96671.13;2110681;28;20427;-62
2023/06/25 13:18:21;;;;;;;12.30;7.17;;;;;;;34.12;26.00;96677.56;2111511;28;20454;-62
2023/06/25 13:19:22;;;;;;;11.87;7.33;;;;;;;33.02;26.11;96681.03;2111806;28;20427;-62
2023/06/25 13:20:24;;;;;;;7.60;6.70;;;;;;;33.30;26.34;96680.78;2112056;28;20427;-62
2023/06/25 13:21:26;;;;;;;10.00;6.77;;;;;;;33.51;26.01;96678.88;2111993;28;20434;-61
2023/06/25 13:22:27;;;;;;;12.63;6.83;;;;;;;33.48;26.10;96679.28;2111879;28;20924;-61
2023/06/25 13:23:28;;;;;;;10.20;7.40;;;;;;;33.94;25.43;96672.88;2111492;28;20451;-62
2023/06/25 13:24:30;;;;;;;7.60;6.20;;;;;;;34.10;26.44;96668.81;2111974;28;20426;-62
2023/06/25 13:25:32;;;;;;;8.77;7.53;;;;;;;34.37;26.01;96676.78;2111800;28;20423;-61
2023/06/25 13:26:34;;;;;;;7.63;6.17;;;;;;;32.88;26.35;96667.53;2111848;28;20423;-61
2023/06/25 13:27:36;;;;;;;9.00;6.87;;;;;;;32.98;26.55;96675.22;2111972;28;20499;-62
2023/06/25 13:32:37;;;;;;;9.27;6.73;;;;;;;33.19;26.19;96670.59;2115718;27;20550;-60
2023/06/25 13:33:39;;;;;;;9.80;7.00;;;;;;;32.39;26.53;96672.31;2091962;28;20551;-61
2023/06/25 13:34:40;;;;;;;10.20;6.93;;;;;;;32.86;26.16;96664.22;2087180;28;21091;-61
2023/06/25 13:35:42;;;;;;;11.67;6.00;;;;;;;32.97;26.88;96670.84;2095884;28;20473;-61
2023/06/25 13:36:43;;;;;;;10.67;7.23;;;;;;;33.25;26.61;96658.94;2097872;28;20917;-61
2023/06/25 13:37:45;;;;;;;7.87;6.53;;;;;;;33.44;26.42;96669.94;2097538;28;20506;-61
2023/06/25 13:38:47;;;;;;;8.97;7.00;;;;;;;33.82;26.85;96656.47;2102339;28;20480;-61
2023/06/25 13:39:48;;;;;;;9.50;6.77;;;;;;;33.44;26.51;96659.94;2107945;28;20522;-61
2023/06/25 13:40:50;;;;;;;9.90;7.10;;;;;;;32.73;27.22;96661.47;2102237;28;20429;-61
2023/06/25 13:41:51;;;;;;;8.93;7.20;;;;;;;33.66;26.73;96657.78;2105338;28;20783;-61
2023/06/25 13:42:53;;;;;;;12.70;6.43;;;;;;;33.20;26.44;96653.31;2101845;28;20503;-61
2023/06/25 13:43:54;;;;;;;8.40;6.50;;;;;;;33.00;26.93;96653.38;2096134;28;20432;-61
2023/06/25 13:44:58;;;;;;;9.67;7.03;;;;;;;32.80;26.93;96653.38;2095516;28;20748;-61
2023/06/25 13:46:00;;;;;;;8.73;6.20;;;;;;;31.92;27.54;96656.00;2094235;28;20791;-61
2023/06/25 13:47:02;;;;;;;10.70;6.57;;;;;;;30.98;29.16;96654.66;2095056;28;20428;-61
2023/06/25 13:48:04;;;;;;;8.27;6.40;;;;;;;31.63;27.83;96646.34;2087718;28;20429;-61
2023/06/25 13:49:05;;;;;;;9.73;6.93;;;;;;;31.29;28.00;96657.97;2088780;28;20430;-61
2023/06/25 13:50:08;;;;;;;9.70;6.67;;;;;;;30.76;27.69;96660.13;2098217;28;20477;-61
2023/06/25 13:51:09;;;;;;;11.67;7.50;;;;;;;31.50;27.85;96665.97;2096726;28;20423;-61
2023/06/25 13:52:11;;;;;;;8.37;6.57;;;;;;;31.35;27.54;96659.88;2093369;28;20469;-61
2023/06/25 13:53:12;;;;;;;10.50;6.83;;;;;;;31.21;27.07;96653.59;2095635;28;20459;-61
2023/06/25 13:54:14;;;;;;;10.37;8.07;;;;;;;31.22;27.47;96661.50;2103669;28;20425;-61
2023/06/25 13:55:16;;;;;;;7.93;6.27;;;;;;;31.35;27.66;96658.03;2104515;28;20426;-61
2023/06/25 13:56:18;;;;;;;9.70;7.60;;;;;;;31.53;27.56;96654.78;2105555;28;20961;-61
2023/06/25 13:57:20;;;;;;;10.63;6.80;;;;;;;30.81;27.63;96651.44;2100413;28;20781;-62
2023/06/25 13:58:21;;;;;;;9.70;7.30;;;;;;;31.31;27.17;96659.44;2098641;28;20459;-61
2023/06/25 13:59:23;;;;;;;9.60;7.17;;;;;;;31.75;27.59;96654.69;2102259;28;20906;-61
2023/06/25 14:00:24;;;;;;;8.60;6.70;;;;;;;31.71;27.51;96654.25;2106731;28;20423;-60
2023/06/25 14:01:26;;;;;;;9.47;7.27;;;;;;;31.43;26.75;96651.63;2104885;28;20435;-61
2023/06/25 14:02:28;;;;;;;8.87;6.10;;;;;;;31.69;27.33;96650.09;2103379;28;20471;-61
2023/06/25 14:03:30;;;;;;;9.80;6.73;;;;;;;31.76;26.31;96648.25;2099754;28;20465;-61
2023/06/25 14:04:32;;;;;;;11.60;7.63;;;;;;;32.30;26.19;96641.09;2097299;28;20437;-61
2023/06/25 14:05:35;;;;;;;8.70;6.33;;;;;;;31.11;27.59;96645.88;2097240;28;20480;-61
2023/06/25 14:06:38;;;;;;;9.40;5.77;;;;;;;31.47;27.71;96647.50;2097029;28;20433;-61
2023/06/25 14:07:39;;;;;;;9.20;6.70;;;;;;;31.10;27.43;96650.41;2098210;28;20472;-61
2023/06/25 14:08:41;;;;;;;9.73;6.70;;;;;;;31.84;26.60;96636.44;2093555;28;20467;-60
2023/06/25 14:09:42;;;;;;;164.23;123.83;;;;;;;32.36;26.53;96631.38;2097945;28;21048;-61
2023/06/25 14:10:44;;;;;;;10.97;7.53;;;;;;;31.33;26.70;96640.38;2099255;28;20503;-62
2023/06/25 14:11:45;;;;;;;7.87;6.47;;;;;;;30.98;27.36;96641.19;2096842;28;20519;-62
2023/06/25 14:12:47;;;;;;;11.67;7.03;;;;;;;30.99;27.72;96636.66;2095436;28;20509;-61
2023/06/25 14:13:48;;;;;;;9.50;6.93;;;;;;;30.59;26.86;96638.03;2094911;28;21081;-61
2023/06/25 14:14:50;;;;;;;10.33;6.90;;;;;;;30.65;27.07;96641.78;2097435;28;20429;-61
2023/06/25 14:15:52;;;;;;;8.83;6.10;;;;;;;31.12;27.00;96636.75;2095005;28;20521;-62
2023/06/25 14:17:06;;;;;;;8.37;6.27;;;;;;;31.41;26.93;96642.91;2094390;28;20428;-61
2023/06/25 14:18:08;;;;;;;9.37;6.90;;;;;;;32.37;26.53;96625.75;2089242;28;20524;-61
2023/06/25 14:19:10;;;;;;;12.73;7.30;;;;;;;32.76;25.92;96631.38;2095179;28;20424;-62
2023/06/25 14:20:11;;;;;;;10.37;6.87;;;;;;;32.77;25.99;96634.91;2099362;28;20428;-62
2023/06/25 14:21:13;;;;;;;8.73;6.60;;;;;;;32.28;26.10;96626.16;2094388;28;20531;-61
2023/06/25 14:22:14;;;;;;;8.43;6.30;;;;;;;32.39;25.97;96630.94;2094517;28;20423;-61
2023/06/25 14:23:15;;;;;;;8.70;6.87;;;;;;;32.45;26.53;96630.09;2098415;28;20447;-61
2023/06/25 14:24:18;;;;;;;9.37;6.53;;;;;;;33.01;25.84;96638.81;2096035;28;20532;-61
2023/06/25 14:25:20;;;;;;;11.30;6.80;;;;;;;31.92;26.48;96639.78;2095257;28;20424;-62
2023/06/25 14:26:21;;;;;;;9.80;6.70;;;;;;;33.03;25.86;96631.31;2096109;28;20418;-61
2023/06/25 14:27:23;;;;;;;10.50;6.90;;;;;;;33.76;26.10;96632.94;2098969;28;20452;-61
2023/06/25 14:28:24;;;;;;;10.13;6.77;;;;;;;34.20;25.08;96626.88;2095354;28;20512;-62
2023/06/25 14:29:34;;;;;;;10.83;6.83;;;;;;;34.50;24.76;96632.53;2095948;28;20432;-61
2023/06/25 14:30:36;;;;;;;8.00;6.60;;;;;;;33.12;24.70;96626.53;2094987;28;20889;-62
2023/06/25 14:31:37;;;;;;;8.90;6.47;;;;;;;32.40;25.80;96627.19;2095463;28;20773;-62
2023/06/25 14:32:39;;;;;;;7.53;5.80;;;;;;;33.16;25.63;96620.47;2095478;28;20471;-61
2023/06/25 14:33:40;;;;;;;11.20;6.60;;;;;;;33.85;25.35;96626.28;2094598;28;20555;-62
2023/06/25 14:34:42;;;;;;;12.07;6.40;;;;;;;34.41;25.76;96631.97;2093752;28;20417;-62
2023/06/25 14:35:43;;;;;;;9.50;6.50;;;;;;;34.58;25.28;96624.09;2095434;28;20618;-61
2023/06/25 14:36:45;;;;;;;10.03;6.43;;;;;;;34.71;24.09;96627.75;2094560;28;20811;-61
2023/06/25 14:37:46;;;;;;;12.50;6.63;;;;;;;33.45;24.78;96612.91;2096096;28;20436;-61
2023/06/25 14:38:48;;;;;;;8.53;6.37;;;;;;;33.04;24.70;96625.72;2093625;28;20489;-61
2023/06/25 14:39:49;;;;;;;7.40;6.30;;;;;;;32.08;25.68;96633.16;2094476;28;20437;-61
2023/06/25 14:40:51;;;;;;;8.13;6.10;;;;;;;32.43;24.96;96625.94;2092152;28;20438;-61
2023/06/25 14:41:52;;;;;;;9.00;7.10;;;;;;;32.75;25.18;96629.72;2096587;28;20486;-62
2023/06/25 14:42:54;;;;;;;10.63;6.80;;;;;;;32.50;24.96;96615.97;2097024;28;20934;-61
2023/06/25 14:43:55;;;;;;;7.33;5.63;;;;;;;32.22;25.21;96614.31;2092350;28;20486;-61
2023/06/25 14:44:58;;;;;;;9.60;7.70;;;;;;;31.92;25.15;96614.66;2092406;28;20455;-61
2023/06/25 14:45:59;;;;;;;9.13;6.97;;;;;;;32.30;25.70;96613.28;2090440;28;20919;-61
2023/06/25 14:47:01;;;;;;;8.57;6.57;;;;;;;32.24;25.96;96617.66;2088141;28;20440;-61
2023/06/25 14:48:03;;;;;;;8.13;5.70;;;;;;;31.41;26.13;96621.31;2090034;28;20461;-61
2023/06/25 14:49:04;;;;;;;7.63;6.00;;;;;;;31.35;26.39;96631.06;2089388;28;20549;-61
2023/06/25 14:50:06;;;;;;;7.10;5.60;;;;;;;32.04;26.10;96623.00;2086291;28;20523;-61
2023/06/25 14:51:07;;;;;;;8.30;6.20;;;;;;;32.24;25.77;96620.34;2084532;28;20508;-61
2023/06/25 14:52:09;;;;;;;7.60;5.60;;;;;;;31.28;26.20;96630.19;2084098;28;20436;-62
2023/06/25 14:53:10;;;;;;;12.50;6.00;;;;;;;31.35;26.04;96630.22;2092059;28;20783;-61
2023/06/25 14:54:12;;;;;;;7.93;6.23;;;;;;;31.38;25.90;96622.56;2089486;28;20435;-61
2023/06/25 14:55:13;;;;;;;8.33;5.97;;;;;;;31.37;25.90;96610.09;2092763;28;20482;-61
2023/06/25 14:56:15;;;;;;;9.30;6.17;;;;;;;30.84;26.44;96615.19;2092296;28;20432;-61
2023/06/25 14:57:17;;;;;;;8.80;6.27;;;;;;;31.20;27.16;96614.19;2089663;28;20434;-61
2023/06/25 14:58:18;;;;;;;7.20;6.23;;;;;;;32.07;25.88;96619.88;2088293;28;20454;-61
2023/06/25 14:59:20;;;;;;;7.93;6.50;;;;;;;32.28;25.34;96610.78;2088947;28;20464;-61
2023/06/25 15:00:21;;;;;;;7.27;6.27;;;;;;;31.57;26.10;96620.16;2086836;28;20834;-61
2023/06/25 15:01:23;;;;;;;7.60;5.77;;;;;;;30.40;26.84;96617.97;2089556;28;20429;-61
2023/06/25 15:02:24;;;;;;;7.97;6.03;;;;;;;30.88;27.34;96622.69;2090121;28;20456;-62
2023/06/25 15:03:26;;;;;;;8.73;6.40;;;;;;;31.09;26.89;96619.09;2089937;28;20484;-61
2023/06/25 15:04:30;;;;;;;8.93;6.80;;;;;;;30.84;26.71;96610.63;2089869;28;20904;-61
2023/06/25 15:05:32;;;;;;;12.23;5.97;;;;;;;31.88;26.25;96616.09;2087504;28;20493;-61
2023/06/25 15:06:34;;;;;;;9.83;6.30;;;;;;;32.15;25.97;96608.88;2088645;28;21011;-61
2023/06/25 15:07:37;;;;;;;11.60;6.33;;;;;;;32.27;26.71;96609.13;2091201;28;20465;-62
2023/06/25 15:08:38;;;;;;;6.73;5.00;;;;;;;31.41;26.50;96607.84;2087170;28;20462;-61
2023/06/25 15:09:40;;;;;;;8.50;6.67;;;;;;;31.62;26.67;96601.47;2088556;28;20913;-61
2023/06/25 15:10:41;;;;;;;7.80;6.20;;;;;;;31.72;25.70;96611.94;2088803;28;20422;-61
2023/06/25 15:11:43;;;;;;;7.03;5.60;;;;;;;31.55;25.85;96609.56;2089252;28;20421;-61
2023/06/25 15:12:44;;;;;;;8.40;5.70;;;;;;;31.79;26.10;96607.34;2090365;28;20915;-61
2023/06/25 15:13:46;;;;;;;7.37;5.70;;;;;;;31.45;25.80;96605.56;2090548;28;20981;-61
2023/06/25 15:14:47;;;;;;;9.30;6.70;;;;;;;31.54;26.05;96601.66;2091734;28;20477;-61
2023/06/25 15:15:48;;;;;;;7.47;5.80;;;;;;;32.21;26.08;96591.03;2092707;28;20445;-61
2023/06/25 15:16:50;;;;;;;8.40;6.27;;;;;;;32.53;25.42;96591.22;2092266;28;20462;-61
2023/06/25 15:17:51;;;;;;;7.93;6.07;;;;;;;32.20;26.12;96594.78;2086483;28;20835;-61
2023/06/25 15:18:53;;;;;;;13.20;6.63;;;;;;;32.14;25.53;96591.00;2089842;28;20456;-61
2023/06/25 15:19:55;;;;;;;8.63;6.60;;;;;;;32.06;25.57;96592.06;2091368;28;20422;-61
2023/06/25 15:20:56;;;;;;;8.07;6.70;;;;;;;32.26;25.77;96585.84;2090877;28;20453;-61
2023/06/25 15:21:58;;;;;;;12.20;6.93;;;;;;;31.39;26.42;96583.78;2087399;28;20438;-61
2023/06/25 15:22:59;;;;;;;6.70;5.40;;;;;;;30.23;26.85;96587.81;2090391;28;20422;-62
2023/06/25 15:24:01;;;;;;;8.23;6.33;;;;;;;29.95;27.47;96582.34;2090580;28;20433;-61
2023/06/25 15:25:03;;;;;;;8.47;6.27;;;;;;;30.69;27.35;96577.56;2091659;28;20432;-61
2023/06/25 15:26:08;;;;;;;7.83;6.40;;;;;;;32.05;26.75;96582.28;2087742;28;20541;-61
2023/06/25 15:27:09;;;;;;;8.20;6.37;;;;;;;32.58;25.61;96585.22;2087288;28;20470;-61
2023/06/25 15:28:11;;;;;;;14.13;6.00;;;;;;;32.81;25.85;96579.38;2088951;28;20752;-61
2023/06/25 15:29:12;;;;;;;7.53;5.70;;;;;;;33.41;25.33;96570.25;2091149;28;20430;-61
2023/06/25 15:30:14;;;;;;;10.17;5.90;;;;;;;33.57;24.70;96582.47;2089315;28;20440;-61
2023/06/25 15:31:15;;;;;;;7.93;6.90;;;;;;;32.29;25.57;96577.34;2088883;28;20433;-62
2023/06/25 15:32:17;;;;;;;11.00;5.97;;;;;;;33.17;25.35;96573.44;2088490;28;20481;-61
2023/06/25 15:33:20;;;;;;;8.47;6.67;;;;;;;33.03;25.01;96574.53;2092574;28;20459;-61
2023/06/25 15:34:21;;;;;;;7.87;6.40;;;;;;;33.49;25.34;96567.31;2088573;28;20430;-61
2023/06/25 15:35:22;;;;;;;10.10;6.33;;;;;;;33.91;24.70;96575.81;2086391;28;20807;-61
2023/06/25 15:36:24;;;;;;;9.43;6.60;;;;;;;34.00;24.92;96581.81;2089371;28;20425;-62
2023/06/25 15:37:25;;;;;;;7.30;5.60;;;;;;;34.16;24.71;96572.31;2093528;28;20785;-61
2023/06/25 15:38:27;;;;;;;10.00;5.70;;;;;;;34.06;24.68;96572.81;2093750;28;20503;-61
2023/06/25 15:39:28;;;;;;;8.17;6.33;;;;;;;33.66;24.80;96573.03;2089738;28;20425;-62
2023/06/25 15:40:30;;;;;;;8.70;6.73;;;;;;;33.45;24.85;96577.72;2092550;28;20425;-62
2023/06/25 15:41:32;;;;;;;7.90;5.70;;;;;;;32.51;26.04;96574.41;2091288;28;20426;-62
2023/06/25 15:42:34;;;;;;;8.93;5.63;;;;;;;31.67;27.24;96573.91;2088336;28;20426;-62
2023/06/25 15:43:35;;;;;;;19.60;5.87;;;;;;;31.19;27.72;96572.09;2087671;28;20595;-62
2023/06/25 15:44:37;;;;;;;7.70;6.37;;;;;;;31.39;27.65;96564.88;2086519;28;20422;-62
2023/06/25 15:45:39;;;;;;;9.20;7.07;;;;;;;31.57;27.20;96575.09;2084947;28;20430;-62
2023/06/25 15:46:41;;;;;;;8.87;6.73;;;;;;;31.21;27.68;96572.69;2091125;28;20953;-61
2023/06/25 15:47:43;;;;;;;8.13;6.60;;;;;;;30.43;28.44;96574.47;2090852;28;20493;-62
2023/06/25 15:48:44;;;;;;;6.87;5.97;;;;;;;30.46;28.64;96566.00;2090692;28;20461;-62
2023/06/25 15:49:45;;;;;;;9.00;6.50;;;;;;;31.66;27.83;96570.38;2089264;28;20421;-62
2023/06/25 15:50:47;;;;;;;9.13;6.70;;;;;;;32.18;26.97;96556.34;2087157;28;20956;-62
2023/06/25 15:51:49;;;;;;;7.80;6.30;;;;;;;31.86;27.24;96564.22;2085336;28;20563;-61